sensor_id;sensor_type;location;lat;lon;timestamp;P1;durP1;ratioP1;P2;durP2;ratioP2
69534;SDS011;56754;51.568;5.048;2022-07-22T00:01:19;6.60;;;1.60;;
69534;SDS011;56754;51.568;5.048;2022-07-22T00:03:44;8.10;;;1.83;;
69534;SDS011;56754;51.568;5.048;2022-07-22T00:06:09;7.07;;;1.70;;
69534;SDS011;56754;51.568;5.048;2022-07-22T00:08:34;6.60;;;1.50;;
69534;SDS011;56754;51.568;5.048;2022-07-22T00:11:00;6.40;;;1.80;;
69534;SDS011;56754;51.568;5.048;2022-07-22T00:13:25;7.70;;;1.80;;
69534;SDS011;56754;51.568;5.048;2022-07-22T00:15:50;6.40;;;1.50;;
69534;SDS011;56754;51.568;5.048;2022-07-22T00:18:16;6.77;;;1.87;;
69534;SDS011;56754;51.568;5.048;2022-07-22T00:20:41;6.10;;;1.43;;
69534;SDS011;56754;51.568;5.048;2022-07-22T00:23:06;5.32;;;1.50;;
69534;SDS011;56754;51.568;5.048;2022-07-22T00:25:31;6.57;;;1.70;;
69534;SDS011;56754;51.568;5.048;2022-07-22T00:27:57;6.27;;;1.67;;
69534;SDS011;56754;51.568;5.048;2022-07-22T00:30:22;6.63;;;1.73;;
69534;SDS011;56754;51.568;5.048;2022-07-22T00:32:47;6.53;;;1.80;;
69534;SDS011;56754;51.568;5.048;2022-07-22T00:35:13;5.33;;;1.60;;
69534;SDS011;56754;51.568;5.048;2022-07-22T00:37:38;5.75;;;1.67;;
69534;SDS011;56754;51.568;5.048;2022-07-22T00:40:03;9.00;;;2.13;;
69534;SDS011;56754;51.568;5.048;2022-07-22T00:42:29;6.17;;;1.70;;
69534;SDS011;56754;51.568;5.048;2022-07-22T00:44:55;6.50;;;1.73;;
69534;SDS011;56754;51.568;5.048;2022-07-22T00:47:20;5.20;;;1.50;;
69534;SDS011;56754;51.568;5.048;2022-07-22T00:49:45;5.50;;;1.60;;
69534;SDS011;56754;51.568;5.048;2022-07-22T00:52:11;6.37;;;1.90;;
69534;SDS011;56754;51.568;5.048;2022-07-22T00:54:37;5.70;;;1.70;;
69534;SDS011;56754;51.568;5.048;2022-07-22T00:57:02;6.07;;;1.60;;
69534;SDS011;56754;51.568;5.048;2022-07-22T00:59:28;6.27;;;1.43;;
69534;SDS011;56754;51.568;5.048;2022-07-22T01:01:53;6.90;;;1.70;;
69534;SDS011;56754;51.568;5.048;2022-07-22T01:04:18;6.97;;;1.70;;
69534;SDS011;56754;51.568;5.048;2022-07-22T01:06:44;7.27;;;1.60;;
69534;SDS011;56754;51.568;5.048;2022-07-22T01:09:10;5.80;;;1.70;;
69534;SDS011;56754;51.568;5.048;2022-07-22T01:11:36;5.80;;;1.90;;
69534;SDS011;56754;51.568;5.048;2022-07-22T01:14:01;7.03;;;1.60;;
69534;SDS011;56754;51.568;5.048;2022-07-22T01:16:27;5.07;;;1.57;;
69534;SDS011;56754;51.568;5.048;2022-07-22T01:18:52;6.23;;;1.80;;
69534;SDS011;56754;51.568;5.048;2022-07-22T01:21:18;9.23;;;1.90;;
69534;SDS011;56754;51.568;5.048;2022-07-22T01:23:44;5.70;;;1.87;;
69534;SDS011;56754;51.568;5.048;2022-07-22T01:26:10;5.93;;;1.50;;
69534;SDS011;56754;51.568;5.048;2022-07-22T01:28:36;5.43;;;1.70;;
69534;SDS011;56754;51.568;5.048;2022-07-22T01:31:01;6.37;;;1.80;;
69534;SDS011;56754;51.568;5.048;2022-07-22T01:33:26;4.83;;;1.67;;
69534;SDS011;56754;51.568;5.048;2022-07-22T01:35:52;5.93;;;1.70;;
69534;SDS011;56754;51.568;5.048;2022-07-22T01:38:20;5.28;;;1.60;;
69534;SDS011;56754;51.568;5.048;2022-07-22T01:40:46;7.20;;;1.60;;
69534;SDS011;56754;51.568;5.048;2022-07-22T01:43:12;5.22;;;1.50;;
69534;SDS011;56754;51.568;5.048;2022-07-22T01:45:37;5.82;;;1.80;;
69534;SDS011;56754;51.568;5.048;2022-07-22T01:48:02;6.60;;;2.00;;
69534;SDS011;56754;51.568;5.048;2022-07-22T01:50:28;6.50;;;1.90;;
69534;SDS011;56754;51.568;5.048;2022-07-22T01:52:54;6.60;;;1.83;;
69534;SDS011;56754;51.568;5.048;2022-07-22T01:55:20;5.88;;;1.70;;
69534;SDS011;56754;51.568;5.048;2022-07-22T01:57:45;5.07;;;1.60;;
69534;SDS011;56754;51.568;5.048;2022-07-22T02:00:10;6.43;;;1.73;;
69534;SDS011;56754;51.568;5.048;2022-07-22T02:02:36;6.13;;;1.70;;
69534;SDS011;56754;51.568;5.048;2022-07-22T02:05:02;7.10;;;1.58;;
69534;SDS011;56754;51.568;5.048;2022-07-22T02:07:29;5.68;;;1.60;;
69534;SDS011;56754;51.568;5.048;2022-07-22T02:09:55;5.03;;;1.50;;
69534;SDS011;56754;51.568;5.048;2022-07-22T02:12:20;4.63;;;1.50;;
69534;SDS011;56754;51.568;5.048;2022-07-22T02:14:45;4.63;;;1.42;;
69534;SDS011;56754;51.568;5.048;2022-07-22T02:17:11;5.77;;;1.60;;
69534;SDS011;56754;51.568;5.048;2022-07-22T02:19:37;5.47;;;1.38;;
69534;SDS011;56754;51.568;5.048;2022-07-22T02:22:03;4.80;;;1.63;;
69534;SDS011;56754;51.568;5.048;2022-07-22T02:24:28;6.63;;;1.60;;
69534;SDS011;56754;51.568;5.048;2022-07-22T02:26:53;5.20;;;1.93;;
69534;SDS011;56754;51.568;5.048;2022-07-22T02:29:19;5.60;;;1.97;;
69534;SDS011;56754;51.568;5.048;2022-07-22T02:31:44;5.60;;;1.90;;
69534;SDS011;56754;51.568;5.048;2022-07-22T02:34:09;4.87;;;1.63;;
69534;SDS011;56754;51.568;5.048;2022-07-22T02:36:35;4.70;;;1.80;;
69534;SDS011;56754;51.568;5.048;2022-07-22T02:39:00;6.07;;;1.73;;
69534;SDS011;56754;51.568;5.048;2022-07-22T02:41:25;5.87;;;1.77;;
69534;SDS011;56754;51.568;5.048;2022-07-22T02:43:51;6.27;;;1.70;;
69534;SDS011;56754;51.568;5.048;2022-07-22T02:46:16;6.32;;;1.90;;
69534;SDS011;56754;51.568;5.048;2022-07-22T02:48:41;5.40;;;1.40;;
69534;SDS011;56754;51.568;5.048;2022-07-22T02:51:06;4.60;;;1.63;;
69534;SDS011;56754;51.568;5.048;2022-07-22T02:53:32;5.47;;;1.77;;
69534;SDS011;56754;51.568;5.048;2022-07-22T02:55:57;5.23;;;1.57;;
69534;SDS011;56754;51.568;5.048;2022-07-22T02:58:22;6.33;;;1.77;;
69534;SDS011;56754;51.568;5.048;2022-07-22T03:00:47;6.00;;;1.90;;
69534;SDS011;56754;51.568;5.048;2022-07-22T03:03:13;5.50;;;1.73;;
69534;SDS011;56754;51.568;5.048;2022-07-22T03:05:38;5.90;;;1.93;;
69534;SDS011;56754;51.568;5.048;2022-07-22T03:08:03;4.47;;;1.60;;
69534;SDS011;56754;51.568;5.048;2022-07-22T03:10:28;7.07;;;1.95;;
69534;SDS011;56754;51.568;5.048;2022-07-22T03:12:54;4.97;;;1.80;;
69534;SDS011;56754;51.568;5.048;2022-07-22T03:15:19;6.10;;;1.70;;
69534;SDS011;56754;51.568;5.048;2022-07-22T03:17:44;5.70;;;1.67;;
69534;SDS011;56754;51.568;5.048;2022-07-22T03:20:10;5.53;;;1.60;;
69534;SDS011;56754;51.568;5.048;2022-07-22T03:22:36;4.80;;;1.58;;
69534;SDS011;56754;51.568;5.048;2022-07-22T03:25:02;4.65;;;1.70;;
69534;SDS011;56754;51.568;5.048;2022-07-22T03:27:28;5.40;;;1.70;;
69534;SDS011;56754;51.568;5.048;2022-07-22T03:29:54;5.67;;;1.67;;
69534;SDS011;56754;51.568;5.048;2022-07-22T03:32:19;5.23;;;1.90;;
69534;SDS011;56754;51.568;5.048;2022-07-22T03:34:44;4.43;;;1.90;;
69534;SDS011;56754;51.568;5.048;2022-07-22T03:37:10;4.43;;;1.58;;
69534;SDS011;56754;51.568;5.048;2022-07-22T03:39:35;5.27;;;1.93;;
69534;SDS011;56754;51.568;5.048;2022-07-22T03:42:00;5.80;;;1.70;;
69534;SDS011;56754;51.568;5.048;2022-07-22T03:44:26;4.77;;;1.80;;
69534;SDS011;56754;51.568;5.048;2022-07-22T03:46:51;5.77;;;1.87;;
69534;SDS011;56754;51.568;5.048;2022-07-22T03:49:16;4.37;;;1.83;;
69534;SDS011;56754;51.568;5.048;2022-07-22T03:51:42;5.32;;;1.85;;
69534;SDS011;56754;51.568;5.048;2022-07-22T03:54:07;7.20;;;1.80;;
69534;SDS011;56754;51.568;5.048;2022-07-22T03:56:32;5.33;;;1.80;;
69534;SDS011;56754;51.568;5.048;2022-07-22T03:58:58;6.37;;;2.00;;
69534;SDS011;56754;51.568;5.048;2022-07-22T04:01:23;4.93;;;1.93;;
69534;SDS011;56754;51.568;5.048;2022-07-22T04:03:48;5.43;;;1.85;;
69534;SDS011;56754;51.568;5.048;2022-07-22T04:06:14;5.17;;;1.90;;
69534;SDS011;56754;51.568;5.048;2022-07-22T04:08:40;7.07;;;2.13;;
69534;SDS011;56754;51.568;5.048;2022-07-22T04:11:05;5.10;;;1.80;;
69534;SDS011;56754;51.568;5.048;2022-07-22T04:13:31;5.70;;;1.70;;
69534;SDS011;56754;51.568;5.048;2022-07-22T04:15:56;5.27;;;1.90;;
69534;SDS011;56754;51.568;5.048;2022-07-22T04:18:21;6.13;;;2.00;;
69534;SDS011;56754;51.568;5.048;2022-07-22T04:20:47;5.43;;;1.73;;
69534;SDS011;56754;51.568;5.048;2022-07-22T04:23:12;4.87;;;1.90;;
69534;SDS011;56754;51.568;5.048;2022-07-22T04:25:37;4.10;;;1.90;;
69534;SDS011;56754;51.568;5.048;2022-07-22T04:28:03;4.22;;;1.95;;
69534;SDS011;56754;51.568;5.048;2022-07-22T04:30:28;7.43;;;2.13;;
69534;SDS011;56754;51.568;5.048;2022-07-22T04:32:54;4.40;;;2.00;;
69534;SDS011;56754;51.568;5.048;2022-07-22T04:35:19;5.43;;;2.00;;
69534;SDS011;56754;51.568;5.048;2022-07-22T04:37:44;6.27;;;2.27;;
69534;SDS011;56754;51.568;5.048;2022-07-22T04:40:10;5.50;;;2.10;;
69534;SDS011;56754;51.568;5.048;2022-07-22T04:42:35;5.00;;;1.98;;
69534;SDS011;56754;51.568;5.048;2022-07-22T04:45:01;5.47;;;2.00;;
69534;SDS011;56754;51.568;5.048;2022-07-22T04:47:26;6.05;;;2.10;;
69534;SDS011;56754;51.568;5.048;2022-07-22T04:49:52;6.43;;;2.00;;
69534;SDS011;56754;51.568;5.048;2022-07-22T04:52:17;5.63;;;2.37;;
69534;SDS011;56754;51.568;5.048;2022-07-22T04:54:42;7.30;;;2.13;;
69534;SDS011;56754;51.568;5.048;2022-07-22T04:57:07;6.13;;;2.47;;
69534;SDS011;56754;51.568;5.048;2022-07-22T04:59:33;5.87;;;2.20;;
69534;SDS011;56754;51.568;5.048;2022-07-22T05:01:58;5.80;;;1.90;;
69534;SDS011;56754;51.568;5.048;2022-07-22T05:04:23;6.28;;;2.08;;
69534;SDS011;56754;51.568;5.048;2022-07-22T05:06:48;5.17;;;2.07;;
69534;SDS011;56754;51.568;5.048;2022-07-22T05:09:14;7.73;;;2.00;;
69534;SDS011;56754;51.568;5.048;2022-07-22T05:11:39;6.60;;;1.80;;
69534;SDS011;56754;51.568;5.048;2022-07-22T05:14:04;4.70;;;2.10;;
69534;SDS011;56754;51.568;5.048;2022-07-22T05:16:30;5.70;;;2.27;;
69534;SDS011;56754;51.568;5.048;2022-07-22T05:18:55;4.37;;;1.97;;
69534;SDS011;56754;51.568;5.048;2022-07-22T05:21:20;5.23;;;2.10;;
69534;SDS011;56754;51.568;5.048;2022-07-22T05:23:46;6.03;;;2.10;;
69534;SDS011;56754;51.568;5.048;2022-07-22T05:26:11;5.67;;;2.30;;
69534;SDS011;56754;51.568;5.048;2022-07-22T05:28:36;5.10;;;1.83;;
69534;SDS011;56754;51.568;5.048;2022-07-22T05:31:01;5.83;;;1.93;;
69534;SDS011;56754;51.568;5.048;2022-07-22T05:33:27;5.97;;;2.00;;
69534;SDS011;56754;51.568;5.048;2022-07-22T05:35:52;5.63;;;1.67;;
69534;SDS011;56754;51.568;5.048;2022-07-22T05:38:18;5.27;;;2.00;;
69534;SDS011;56754;51.568;5.048;2022-07-22T05:40:43;6.33;;;2.00;;
69534;SDS011;56754;51.568;5.048;2022-07-22T05:43:08;4.87;;;1.70;;
69534;SDS011;56754;51.568;5.048;2022-07-22T05:45:34;5.13;;;2.00;;
69534;SDS011;56754;51.568;5.048;2022-07-22T05:47:59;5.10;;;1.75;;
69534;SDS011;56754;51.568;5.048;2022-07-22T05:50:24;5.50;;;2.00;;
69534;SDS011;56754;51.568;5.048;2022-07-22T05:52:50;7.30;;;1.90;;
69534;SDS011;56754;51.568;5.048;2022-07-22T05:55:15;4.70;;;1.77;;
69534;SDS011;56754;51.568;5.048;2022-07-22T05:57:40;6.47;;;1.97;;
69534;SDS011;56754;51.568;5.048;2022-07-22T06:00:06;5.00;;;1.50;;
69534;SDS011;56754;51.568;5.048;2022-07-22T06:02:32;5.40;;;1.83;;
69534;SDS011;56754;51.568;5.048;2022-07-22T06:04:57;5.33;;;1.83;;
69534;SDS011;56754;51.568;5.048;2022-07-22T06:07:23;4.47;;;1.63;;
69534;SDS011;56754;51.568;5.048;2022-07-22T06:09:48;3.93;;;1.70;;
69534;SDS011;56754;51.568;5.048;2022-07-22T06:12:13;6.40;;;1.80;;
69534;SDS011;56754;51.568;5.048;2022-07-22T06:14:38;5.73;;;1.90;;
69534;SDS011;56754;51.568;5.048;2022-07-22T06:17:04;5.97;;;1.90;;
69534;SDS011;56754;51.568;5.048;2022-07-22T06:19:29;4.50;;;1.67;;
69534;SDS011;56754;51.568;5.048;2022-07-22T06:21:55;5.90;;;1.80;;
69534;SDS011;56754;51.568;5.048;2022-07-22T06:24:20;4.55;;;1.77;;
69534;SDS011;56754;51.568;5.048;2022-07-22T06:26:46;5.97;;;1.80;;
69534;SDS011;56754;51.568;5.048;2022-07-22T06:29:11;5.07;;;2.00;;
69534;SDS011;56754;51.568;5.048;2022-07-22T06:31:36;6.17;;;1.80;;
69534;SDS011;56754;51.568;5.048;2022-07-22T06:34:01;3.93;;;1.43;;
69534;SDS011;56754;51.568;5.048;2022-07-22T06:36:27;5.77;;;2.07;;
69534;SDS011;56754;51.568;5.048;2022-07-22T06:38:52;3.73;;;1.40;;
69534;SDS011;56754;51.568;5.048;2022-07-22T06:41:17;5.50;;;1.50;;
69534;SDS011;56754;51.568;5.048;2022-07-22T06:43:42;4.43;;;1.40;;
69534;SDS011;56754;51.568;5.048;2022-07-22T06:46:08;5.00;;;1.53;;
69534;SDS011;56754;51.568;5.048;2022-07-22T06:48:33;3.80;;;1.60;;
69534;SDS011;56754;51.568;5.048;2022-07-22T06:50:58;3.53;;;1.33;;
69534;SDS011;56754;51.568;5.048;2022-07-22T06:53:24;5.27;;;1.67;;
69534;SDS011;56754;51.568;5.048;2022-07-22T06:55:49;5.27;;;1.43;;
69534;SDS011;56754;51.568;5.048;2022-07-22T06:58:14;7.33;;;1.47;;
69534;SDS011;56754;51.568;5.048;2022-07-22T07:00:39;6.43;;;1.70;;
69534;SDS011;56754;51.568;5.048;2022-07-22T07:03:05;4.53;;;1.40;;
69534;SDS011;56754;51.568;5.048;2022-07-22T07:05:30;5.03;;;1.70;;
69534;SDS011;56754;51.568;5.048;2022-07-22T07:07:55;5.40;;;1.40;;
69534;SDS011;56754;51.568;5.048;2022-07-22T07:10:21;4.80;;;1.33;;
69534;SDS011;56754;51.568;5.048;2022-07-22T07:12:47;4.47;;;1.40;;
69534;SDS011;56754;51.568;5.048;2022-07-22T07:15:12;4.55;;;1.30;;
69534;SDS011;56754;51.568;5.048;2022-07-22T07:17:38;4.87;;;1.30;;
69534;SDS011;56754;51.568;5.048;2022-07-22T07:20:04;5.57;;;1.30;;
69534;SDS011;56754;51.568;5.048;2022-07-22T07:22:30;6.03;;;1.50;;
69534;SDS011;56754;51.568;5.048;2022-07-22T07:24:55;5.03;;;1.50;;
69534;SDS011;56754;51.568;5.048;2022-07-22T07:27:21;4.97;;;1.50;;
69534;SDS011;56754;51.568;5.048;2022-07-22T07:29:46;4.97;;;1.43;;
69534;SDS011;56754;51.568;5.048;2022-07-22T07:32:11;4.83;;;1.50;;
69534;SDS011;56754;51.568;5.048;2022-07-22T07:34:37;6.10;;;1.40;;
69534;SDS011;56754;51.568;5.048;2022-07-22T07:37:02;5.40;;;1.70;;
69534;SDS011;56754;51.568;5.048;2022-07-22T07:39:27;6.33;;;1.40;;
69534;SDS011;56754;51.568;5.048;2022-07-22T07:41:52;4.90;;;1.77;;
69534;SDS011;56754;51.568;5.048;2022-07-22T07:44:18;4.57;;;1.23;;
69534;SDS011;56754;51.568;5.048;2022-07-22T07:46:43;4.47;;;1.60;;
69534;SDS011;56754;51.568;5.048;2022-07-22T07:49:09;6.43;;;1.63;;
69534;SDS011;56754;51.568;5.048;2022-07-22T07:51:34;5.37;;;1.63;;
69534;SDS011;56754;51.568;5.048;2022-07-22T07:53:59;4.53;;;1.70;;
69534;SDS011;56754;51.568;5.048;2022-07-22T07:56:24;4.37;;;1.80;;
69534;SDS011;56754;51.568;5.048;2022-07-22T07:58:50;4.13;;;1.70;;
69534;SDS011;56754;51.568;5.048;2022-07-22T08:01:15;4.80;;;1.60;;
69534;SDS011;56754;51.568;5.048;2022-07-22T08:03:40;3.90;;;1.90;;
69534;SDS011;56754;51.568;5.048;2022-07-22T08:06:06;6.07;;;1.87;;
69534;SDS011;56754;51.568;5.048;2022-07-22T08:08:31;4.90;;;1.90;;
69534;SDS011;56754;51.568;5.048;2022-07-22T08:10:56;4.67;;;1.90;;
69534;SDS011;56754;51.568;5.048;2022-07-22T08:13:21;5.03;;;1.93;;
69534;SDS011;56754;51.568;5.048;2022-07-22T08:15:47;6.63;;;2.37;;
69534;SDS011;56754;51.568;5.048;2022-07-22T08:18:12;5.22;;;1.90;;
69534;SDS011;56754;51.568;5.048;2022-07-22T08:20:37;5.73;;;1.90;;
69534;SDS011;56754;51.568;5.048;2022-07-22T08:23:03;6.33;;;2.00;;
69534;SDS011;56754;51.568;5.048;2022-07-22T08:25:28;4.63;;;1.93;;
69534;SDS011;56754;51.568;5.048;2022-07-22T08:27:54;4.90;;;1.67;;
69534;SDS011;56754;51.568;5.048;2022-07-22T08:30:20;4.05;;;1.70;;
69534;SDS011;56754;51.568;5.048;2022-07-22T08:32:46;4.05;;;1.80;;
69534;SDS011;56754;51.568;5.048;2022-07-22T08:35:11;4.70;;;1.73;;
69534;SDS011;56754;51.568;5.048;2022-07-22T08:37:36;4.93;;;1.83;;
69534;SDS011;56754;51.568;5.048;2022-07-22T08:40:02;4.88;;;1.73;;
69534;SDS011;56754;51.568;5.048;2022-07-22T08:42:29;4.67;;;1.93;;
69534;SDS011;56754;51.568;5.048;2022-07-22T08:44:55;4.05;;;1.88;;
69534;SDS011;56754;51.568;5.048;2022-07-22T08:47:21;5.47;;;1.80;;
69534;SDS011;56754;51.568;5.048;2022-07-22T08:49:47;4.25;;;1.90;;
69534;SDS011;56754;51.568;5.048;2022-07-22T08:52:12;4.67;;;2.03;;
69534;SDS011;56754;51.568;5.048;2022-07-22T08:54:38;5.10;;;1.97;;
69534;SDS011;56754;51.568;5.048;2022-07-22T08:57:03;5.13;;;2.20;;
69534;SDS011;56754;51.568;5.048;2022-07-22T08:59:28;4.15;;;1.95;;
69534;SDS011;56754;51.568;5.048;2022-07-22T09:02:00;5.33;;;2.03;;
69534;SDS011;56754;51.568;5.048;2022-07-22T09:04:30;6.45;;;2.00;;
69534;SDS011;56754;51.568;5.048;2022-07-22T09:06:56;5.93;;;2.20;;
69534;SDS011;56754;51.568;5.048;2022-07-22T09:09:29;5.68;;;2.40;;
69534;SDS011;56754;51.568;5.048;2022-07-22T09:12:08;4.75;;;2.05;;
69534;SDS011;56754;51.568;5.048;2022-07-22T09:14:47;5.25;;;2.00;;
69534;SDS011;56754;51.568;5.048;2022-07-22T09:19:52;6.77;;;2.20;;
69534;SDS011;56754;51.568;5.048;2022-07-22T09:22:30;5.03;;;2.17;;
69534;SDS011;56754;51.568;5.048;2022-07-22T09:24:59;5.10;;;2.40;;
69534;SDS011;56754;51.568;5.048;2022-07-22T09:30:35;4.15;;;2.10;;
69534;SDS011;56754;51.568;5.048;2022-07-22T09:33:02;4.70;;;2.20;;
69534;SDS011;56754;51.568;5.048;2022-07-22T09:35:28;5.65;;;2.20;;
69534;SDS011;56754;51.568;5.048;2022-07-22T09:37:56;5.38;;;2.15;;
69534;SDS011;56754;51.568;5.048;2022-07-22T09:40:36;5.20;;;2.35;;
69534;SDS011;56754;51.568;5.048;2022-07-22T09:43:10;5.87;;;2.20;;
69534;SDS011;56754;51.568;5.048;2022-07-22T09:48:12;5.90;;;2.10;;
69534;SDS011;56754;51.568;5.048;2022-07-22T09:50:38;4.90;;;2.00;;
69534;SDS011;56754;51.568;5.048;2022-07-22T09:53:03;4.75;;;2.08;;
69534;SDS011;56754;51.568;5.048;2022-07-22T09:55:29;6.00;;;2.07;;
69534;SDS011;56754;51.568;5.048;2022-07-22T09:57:55;4.55;;;1.92;;
69534;SDS011;56754;51.568;5.048;2022-07-22T10:00:22;5.78;;;2.22;;
69534;SDS011;56754;51.568;5.048;2022-07-22T10:02:50;4.70;;;1.90;;
69534;SDS011;56754;51.568;5.048;2022-07-22T10:05:23;3.97;;;1.85;;
69534;SDS011;56754;51.568;5.048;2022-07-22T10:07:50;4.70;;;2.00;;
69534;SDS011;56754;51.568;5.048;2022-07-22T10:10:17;4.35;;;2.10;;
69534;SDS011;56754;51.568;5.048;2022-07-22T10:12:45;5.22;;;2.35;;
69534;SDS011;56754;51.568;5.048;2022-07-22T10:15:13;4.30;;;2.07;;
69534;SDS011;56754;51.568;5.048;2022-07-22T10:17:40;5.93;;;2.33;;
69534;SDS011;56754;51.568;5.048;2022-07-22T10:20:09;7.70;;;2.50;;
69534;SDS011;56754;51.568;5.048;2022-07-22T10:25:04;6.40;;;2.65;;
69534;SDS011;56754;51.568;5.048;2022-07-22T10:27:55;5.65;;;2.38;;
69534;SDS011;56754;51.568;5.048;2022-07-22T10:30:36;4.90;;;2.20;;
69534;SDS011;56754;51.568;5.048;2022-07-22T10:33:11;6.13;;;2.40;;
69534;SDS011;56754;51.568;5.048;2022-07-22T10:35:51;5.70;;;2.17;;
69534;SDS011;56754;51.568;5.048;2022-07-22T10:38:18;5.53;;;2.40;;
69534;SDS011;56754;51.568;5.048;2022-07-22T10:43:46;5.90;;;2.50;;
69534;SDS011;56754;51.568;5.048;2022-07-22T10:46:09;5.22;;;2.15;;
69534;SDS011;56754;51.568;5.048;2022-07-22T11:01:04;4.60;;;2.10;;
69534;SDS011;56754;51.568;5.048;2022-07-22T11:03:31;5.95;;;2.17;;
69534;SDS011;56754;51.568;5.048;2022-07-22T11:06:19;4.40;;;2.00;;
69534;SDS011;56754;51.568;5.048;2022-07-22T11:08:49;5.95;;;2.20;;
69534;SDS011;56754;51.568;5.048;2022-07-22T11:11:16;4.05;;;1.95;;
69534;SDS011;56754;51.568;5.048;2022-07-22T11:13:42;4.33;;;1.90;;
69534;SDS011;56754;51.568;5.048;2022-07-22T11:21:25;4.78;;;2.00;;
69534;SDS011;56754;51.568;5.048;2022-07-22T11:23:53;4.60;;;2.10;;
69534;SDS011;56754;51.568;5.048;2022-07-22T11:26:24;5.05;;;2.20;;
69534;SDS011;56754;51.568;5.048;2022-07-22T11:29:10;4.18;;;1.95;;
69534;SDS011;56754;51.568;5.048;2022-07-22T11:31:41;4.82;;;2.00;;
69534;SDS011;56754;51.568;5.048;2022-07-22T11:34:11;4.00;;;1.83;;
69534;SDS011;56754;51.568;5.048;2022-07-22T11:36:39;4.97;;;1.88;;
69534;SDS011;56754;51.568;5.048;2022-07-22T11:39:06;4.60;;;2.30;;
69534;SDS011;56754;51.568;5.048;2022-07-22T11:41:33;6.17;;;2.00;;
69534;SDS011;56754;51.568;5.048;2022-07-22T11:43:59;4.70;;;2.05;;
69534;SDS011;56754;51.568;5.048;2022-07-22T11:46:24;4.67;;;2.10;;
69534;SDS011;56754;51.568;5.048;2022-07-22T11:48:50;5.95;;;1.90;;
69534;SDS011;56754;51.568;5.048;2022-07-22T11:51:15;4.63;;;2.13;;
69534;SDS011;56754;51.568;5.048;2022-07-22T11:53:41;5.37;;;2.20;;
69534;SDS011;56754;51.568;5.048;2022-07-22T11:56:07;4.85;;;2.00;;
69534;SDS011;56754;51.568;5.048;2022-07-22T11:58:47;5.40;;;2.15;;
69534;SDS011;56754;51.568;5.048;2022-07-22T12:01:15;5.03;;;2.45;;
69534;SDS011;56754;51.568;5.048;2022-07-22T12:03:44;4.87;;;2.27;;
69534;SDS011;56754;51.568;5.048;2022-07-22T12:06:13;5.10;;;2.38;;
69534;SDS011;56754;51.568;5.048;2022-07-22T12:08:40;7.32;;;2.40;;
69534;SDS011;56754;51.568;5.048;2022-07-22T12:11:08;5.50;;;2.95;;
69534;SDS011;56754;51.568;5.048;2022-07-22T12:13:35;5.55;;;2.70;;
69534;SDS011;56754;51.568;5.048;2022-07-22T12:16:07;4.53;;;2.33;;
69534;SDS011;56754;51.568;5.048;2022-07-22T12:18:49;5.05;;;2.20;;
69534;SDS011;56754;51.568;5.048;2022-07-22T12:21:23;4.13;;;2.13;;
69534;SDS011;56754;51.568;5.048;2022-07-22T12:23:51;4.20;;;2.30;;
69534;SDS011;56754;51.568;5.048;2022-07-22T12:26:36;4.45;;;2.00;;
69534;SDS011;56754;51.568;5.048;2022-07-22T12:29:25;4.88;;;1.80;;
69534;SDS011;56754;51.568;5.048;2022-07-22T12:31:53;4.57;;;1.92;;
69534;SDS011;56754;51.568;5.048;2022-07-22T12:45:00;3.85;;;1.80;;
69534;SDS011;56754;51.568;5.048;2022-07-22T12:47:38;3.20;;;1.50;;
69534;SDS011;56754;51.568;5.048;2022-07-22T12:50:16;3.30;;;1.80;;
69534;SDS011;56754;51.568;5.048;2022-07-22T12:52:42;3.40;;;1.80;;
69534;SDS011;56754;51.568;5.048;2022-07-22T12:55:07;4.93;;;1.90;;
69534;SDS011;56754;51.568;5.048;2022-07-22T12:57:32;4.83;;;2.20;;
69534;SDS011;56754;51.568;5.048;2022-07-22T12:59:58;3.70;;;2.10;;
69534;SDS011;56754;51.568;5.048;2022-07-22T13:02:23;4.93;;;1.92;;
69534;SDS011;56754;51.568;5.048;2022-07-22T13:04:48;4.00;;;1.90;;
69534;SDS011;56754;51.568;5.048;2022-07-22T13:07:13;3.63;;;2.00;;
69534;SDS011;56754;51.568;5.048;2022-07-22T13:09:39;4.17;;;2.10;;
69534;SDS011;56754;51.568;5.048;2022-07-22T13:12:04;4.73;;;2.07;;
69534;SDS011;56754;51.568;5.048;2022-07-22T13:14:29;3.93;;;1.90;;
69534;SDS011;56754;51.568;5.048;2022-07-22T13:16:55;4.70;;;1.87;;
69534;SDS011;56754;51.568;5.048;2022-07-22T13:19:20;4.07;;;1.60;;
69534;SDS011;56754;51.568;5.048;2022-07-22T13:21:45;3.50;;;1.57;;
69534;SDS011;56754;51.568;5.048;2022-07-22T13:24:10;4.50;;;1.70;;
69534;SDS011;56754;51.568;5.048;2022-07-22T13:26:36;3.30;;;1.50;;
69534;SDS011;56754;51.568;5.048;2022-07-22T13:29:01;4.10;;;1.73;;
69534;SDS011;56754;51.568;5.048;2022-07-22T13:31:26;4.27;;;1.97;;
69534;SDS011;56754;51.568;5.048;2022-07-22T13:33:51;4.30;;;2.03;;
69534;SDS011;56754;51.568;5.048;2022-07-22T13:36:17;4.10;;;2.00;;
69534;SDS011;56754;51.568;5.048;2022-07-22T13:38:42;5.57;;;1.93;;
69534;SDS011;56754;51.568;5.048;2022-07-22T13:41:07;4.18;;;1.80;;
69534;SDS011;56754;51.568;5.048;2022-07-22T13:43:33;3.27;;;1.70;;
69534;SDS011;56754;51.568;5.048;2022-07-22T13:45:58;3.80;;;1.90;;
69534;SDS011;56754;51.568;5.048;2022-07-22T13:48:23;3.90;;;1.83;;
69534;SDS011;56754;51.568;5.048;2022-07-22T13:50:48;3.60;;;1.70;;
69534;SDS011;56754;51.568;5.048;2022-07-22T13:53:14;4.00;;;2.13;;
69534;SDS011;56754;51.568;5.048;2022-07-22T13:55:39;4.80;;;2.20;;
69534;SDS011;56754;51.568;5.048;2022-07-22T13:58:05;4.72;;;2.15;;
69534;SDS011;56754;51.568;5.048;2022-07-22T14:00:31;3.38;;;1.80;;
69534;SDS011;56754;51.568;5.048;2022-07-22T14:02:57;4.87;;;2.00;;
69534;SDS011;56754;51.568;5.048;2022-07-22T14:05:23;4.07;;;2.20;;
69534;SDS011;56754;51.568;5.048;2022-07-22T14:07:48;4.87;;;2.10;;
69534;SDS011;56754;51.568;5.048;2022-07-22T14:10:13;3.77;;;2.10;;
69534;SDS011;56754;51.568;5.048;2022-07-22T14:12:39;4.10;;;1.80;;
69534;SDS011;56754;51.568;5.048;2022-07-22T14:15:04;3.90;;;1.90;;
69534;SDS011;56754;51.568;5.048;2022-07-22T14:17:30;3.53;;;1.90;;
69534;SDS011;56754;51.568;5.048;2022-07-22T14:19:55;4.57;;;2.00;;
69534;SDS011;56754;51.568;5.048;2022-07-22T14:22:20;3.80;;;1.70;;
69534;SDS011;56754;51.568;5.048;2022-07-22T14:24:46;3.70;;;2.00;;
69534;SDS011;56754;51.568;5.048;2022-07-22T14:27:11;4.05;;;1.65;;
69534;SDS011;56754;51.568;5.048;2022-07-22T14:29:36;5.07;;;1.90;;
69534;SDS011;56754;51.568;5.048;2022-07-22T14:32:02;3.73;;;1.70;;
69534;SDS011;56754;51.568;5.048;2022-07-22T14:34:27;3.67;;;1.63;;
69534;SDS011;56754;51.568;5.048;2022-07-22T14:36:52;4.33;;;1.60;;
69534;SDS011;56754;51.568;5.048;2022-07-22T14:39:18;5.60;;;2.17;;
69534;SDS011;56754;51.568;5.048;2022-07-22T14:41:43;3.97;;;2.00;;
69534;SDS011;56754;51.568;5.048;2022-07-22T14:44:08;4.70;;;1.80;;
69534;SDS011;56754;51.568;5.048;2022-07-22T14:46:33;4.25;;;1.90;;
69534;SDS011;56754;51.568;5.048;2022-07-22T14:48:59;4.53;;;1.77;;
69534;SDS011;56754;51.568;5.048;2022-07-22T14:51:24;4.47;;;2.00;;
69534;SDS011;56754;51.568;5.048;2022-07-22T14:53:49;4.30;;;1.93;;
69534;SDS011;56754;51.568;5.048;2022-07-22T14:56:15;3.60;;;1.73;;
69534;SDS011;56754;51.568;5.048;2022-07-22T14:58:41;2.97;;;1.60;;
69534;SDS011;56754;51.568;5.048;2022-07-22T15:01:06;3.97;;;1.80;;
69534;SDS011;56754;51.568;5.048;2022-07-22T15:03:32;4.00;;;1.73;;
69534;SDS011;56754;51.568;5.048;2022-07-22T15:05:57;3.50;;;1.73;;
69534;SDS011;56754;51.568;5.048;2022-07-22T15:08:22;4.47;;;1.80;;
69534;SDS011;56754;51.568;5.048;2022-07-22T15:10:47;3.80;;;1.90;;
69534;SDS011;56754;51.568;5.048;2022-07-22T15:13:13;5.43;;;2.00;;
69534;SDS011;56754;51.568;5.048;2022-07-22T15:15:38;3.63;;;1.70;;
69534;SDS011;56754;51.568;5.048;2022-07-22T15:18:04;4.67;;;2.00;;
69534;SDS011;56754;51.568;5.048;2022-07-22T15:20:29;4.85;;;1.92;;
69534;SDS011;56754;51.568;5.048;2022-07-22T15:22:54;4.40;;;1.90;;
69534;SDS011;56754;51.568;5.048;2022-07-22T15:25:20;4.20;;;1.80;;